Nearby METAR Reports

 

KDWH - Houston/Dw Hooks, Texas, USA
Distance from station: WNW 3mi, 6km
Updated: 10/01/2022 9:53pm
Clear
Clear
 
Temperature: 61°F , 16°C
Dew Point: 54°F , 12°C
Humidity: 77%
Barometer: 30.04 inHg , 1017.3 hPa
Clouds: Clear
Visibility: 10 miles , 16 km
2022/10/02 02:53 KDWH 020253Z AUTO 10SM CLR 16/12 A3004 RMK AO2 SLP169 T01610117 53016
KIAH - Houston/Intnl, Texas, USA
Distance from station: ESE 9mi, 14km
Updated: 10/01/2022 9:53pm
Clear
Clear
 Wind from calm
Wind: Calm
Temperature: 64°F , 18°C
Dew Point: 50°F , 10°C
Humidity: 60%
Barometer: 30.03 inHg , 1016.9 hPa
Clouds: Clear
Visibility: 10 miles , 16 km
2022/10/02 02:53 KIAH 020253Z 00000KT 10SM CLR 18/10 A3003 RMK AO2 SLP168 T01780100 53015
 
KCXO - Conroe, Texas, USA
Distance from station: NNE 21mi, 34km
Updated: 10/01/2022 9:53pm
Clear
Clear
 Wind from NNW
Wind: NNW 3 mph , 6 km/h
Temperature: 57°F , 14°C
Dew Point: 52°F , 11°C
Humidity: 82%
Barometer: 30.05 inHg , 1017.6 hPa
Clouds: Clear
Visibility: 10 miles , 16 km
2022/10/02 02:53 KCXO 020253Z AUTO 33003KT 10SM CLR 14/11 A3005 RMK AO2 SLP173 T01440111 53015
KMCJ - Houston/Univ, Texas, USA
Distance from station: SSE 24mi, 39km
Updated: 10/01/2022 10:15pm
Few Clouds
Few Clouds
 Wind from varies
Wind: varies 5 mph , 7 km/h
Temperature: 73°F , 23°C
Dew Point: 52°F , 11°C
Humidity: 47%
Barometer: 30.02 inHg , 1016.6 hPa
Clouds: Few Clouds
Visibility: 10 miles , 16 km
Cloud details: Few Clouds 4600 ft
2022/10/02 03:15 KMCJ 020315Z AUTO VRB04KT 10SM FEW046 23/11 A3002 RMK A01
 
KTME - Houston Exec, Texas, USA
Distance from station: SW 30mi, 48km
Updated: 10/01/2022 10:15pm
Clear
Clear
 Wind from calm
Wind: Calm
Temperature: 66°F , 19°C
Dew Point: 52°F , 11°C
Humidity: 60%
Barometer: 30.05 inHg , 1017.6 hPa
Clouds: Clear
2022/10/02 03:15 KTME 020315Z AUTO 00000KT CLR 19/11 A3005 RMK AO2
KHOU - Houston/Hobby, Texas, USA
Distance from station: SSE 32mi, 51km
Updated: 10/01/2022 9:53pm
Clear
Clear
 Wind from S
Wind: S 6 mph , 9 km/h
Temperature: 70°F , 21°C
Dew Point: 52°F , 11°C
Humidity: 53%
Barometer: 30.03 inHg , 1016.9 hPa
Clouds: Clear
Visibility: 10 miles , 16 km
2022/10/02 02:53 KHOU 020253Z 19005KT 10SM CLR 21/11 A3003 RMK AO2 SLP172 T02110111 53015
 
KSGR - Houston/Sugar La, Texas, USA
Distance from station: SSW 32mi, 51km
Updated: 10/01/2022 9:53pm
Clear
Clear
 
Temperature: 64°F , 18°C
Dew Point: 52°F , 11°C
Humidity: 64%
Barometer: 30.03 inHg , 1016.9 hPa
Clouds: Clear
Visibility: 10 miles , 16 km
2022/10/02 02:53 KSGR 020253Z AUTO 10SM CLR 18/11 A3003 RMK AO2 SLP169 T01780111 53015
K6R3 - Cleveland Muni, Texas, USA
Distance from station: NE 36mi, 58km
Updated: 09/01/2022 3:50pm
NOT Current
Heavy thunderstorm, Rain, Overcast
Heavy thunderstorm, Rain, Overcast
 Wind from E
Wind: E 9 mph , 15 km/h, Gust: 25 mph , 41 km/h
Temperature: 79°F , 26°C
Dew Point: 77°F , 25°C
Humidity: 94%
Barometer: 29.94 inHg , 1013.9 hPa
Summary: Heavy thunderstorm, Rain
Clouds: Overcast
Visibility: 1/2 mile , 0.8 km
Cloud details: Mostly cloudy 1000 ft
Overcast 1600 ft
2022/09/01 20:50 K6R3 012050Z AUTO 09008G22KT 050V210 1/2SM +TSRA BKN010 OVC016 26/25 A2994 RMK AO2 LTG DSNT NW THRU SE P0074 60074 T02580247
 
KAXH - Houston/Southwst, Texas, USA
Distance from station: S 37mi, 60km
Updated: 08/18/2022 5:15pm
NOT Current
Thunderstorm rain, Overcast
Thunderstorm rain, Overcast
 Wind from ESE
Wind: ESE 13 mph , 20 km/h, Gust: 21 mph , 33 km/h
Temperature: 81°F , 27°C
Heat Index: 86°F , 30°C
Dew Point: 73°F , 23°C
Humidity: 79%
Barometer: 29.89 inHg , 1012.2 hPa
Summary: Thunderstorm Rain
Clouds: Overcast
Visibility: 10 miles , 16 km
Cloud details: Mostly cloudy 4100 ft
Overcast 4800 ft
2022/08/18 22:15 KAXH 182215Z AUTO 12011G18KT 10SM TSRA BKN041 OVC048 27/23 A2989 RMK AO2 LTG DSNT ALQS T02730232
KEFD - Houston/Ellingto, Texas, USA
Distance from station: SSE 37mi, 60km
Updated: 10/01/2022 9:54pm
Clear
Clear
 Wind from S
Wind: S 5 mph , 7 km/h
Temperature: 68°F , 20°C
Dew Point: 52°F , 11°C
Humidity: 56%
Barometer: 30.02 inHg , 1016.6 hPa
Clouds: Clear
Visibility: 10 miles , 16 km
2022/10/02 02:54 KEFD 020254Z 18004KT 10SM CLR 20/11 A3002
 
KLVJ - Houston, Texas, USA
Distance from station: SSE 40mi, 64km
Updated: 10/01/2022 9:53pm
Clear
Clear
 Wind from calm
Wind: Calm
Temperature: 64°F , 18°C
Dew Point: 54°F , 12°C
Humidity: 68%
Barometer: 30.04 inHg , 1017.3 hPa
Clouds: Clear
Visibility: 10 miles , 16 km
2022/10/02 02:53 KLVJ 020253Z AUTO 00000KT 10SM CLR 18/12 A3004 RMK AO2 SLP172 T01830122 52015
KUTS - Huntsville, Texas, USA
Distance from station: N 48mi, 78km
Updated: 10/01/2022 9:53pm
Clear
Clear
 Wind from calm
Wind: Calm
Temperature: 64°F , 18°C
Dew Point: 46°F , 8°C
Humidity: 52%
Barometer: 30.04 inHg , 1017.3 hPa
Clouds: Clear
Visibility: 10 miles , 16 km
2022/10/02 02:53 KUTS 020253Z AUTO 00000KT 10SM CLR 18/08 A3004 RMK AO2 SLP170 T01830083 53016